Time;durP1;ratioP1;P1;durP2;ratioP2;P2;SDS_P1;SDS_P2;PMS_P1;PMS_P2;Temp;Humidity;BMP_temperature;BMP_pressure;BME280_temperature;BME280_humidity;BME280_pressure;Samples;Min_cycle;Max_cycle;Signal;HPM_P1;HPM_P2
2022/07/14 00:00:32;;;;;;;;;;;;;;;;;;5096621;28;19980;-41
2022/07/14 00:02:57;;;;;;;;;;;;;;;;;;5096747;28;19912;-41
2022/07/14 00:05:22;;;;;;;;;;;;;;;;;;5096666;28;19920;-42
2022/07/14 00:07:47;;;;;;;;;;;;;;;;;;5096698;28;19912;-41
2022/07/14 00:10:12;;;;;;;;;;;;;;;;;;5097013;28;19915;-41
2022/07/14 00:12:37;;;;;;;;;;;;;;;;;;5096474;28;19908;-41
2022/07/14 00:15:02;;;;;;;;;;;;;;;;;;5096378;28;19909;-41
2022/07/14 00:17:27;;;;;;;;;;;;;;;;;;5096547;28;19912;-41
2022/07/14 00:19:53;;;;;;;;;;;;;;;;;;5096345;28;19950;-41
2022/07/14 00:22:18;;;;;;;;;;;;;;;;;;5096270;28;20248;-41
2022/07/14 00:24:43;;;;;;;;;;;;;;;;;;5096417;28;19912;-41
2022/07/14 00:27:08;;;;;;;;;;;;;;;;;;5096386;28;19947;-41
2022/07/14 00:29:33;;;;;;;;;;;;;;;;;;5096541;28;19915;-41
2022/07/14 00:31:59;;;;;;;;;;;;;;;;;;5096049;28;19913;-41
2022/07/14 00:34:24;;;;;;;;;;;;;;;;;;5094145;28;19915;-41
2022/07/14 00:36:49;;;;;;;;;;;;;;;;;;5094764;28;19908;-41
2022/07/14 00:39:14;;;;;;;;;;;;;;;;;;5095910;28;20371;-41
2022/07/14 00:41:39;;;;;;;;;;;;;;;;;;5096198;28;19909;-41
2022/07/14 00:44:04;;;;;;;;;;;;;;;;;;5095737;28;20015;-41
2022/07/14 00:46:29;;;;;;;;;;;;;;;;;;5095862;28;19953;-41
2022/07/14 00:48:54;;;;;;;;;;;;;;;;;;5095840;28;19915;-41
2022/07/14 00:51:19;;;;;;;;;;;;;;;;;;5095764;28;19912;-41
2022/07/14 00:53:44;;;;;;;;;;;;;;;;;;5095665;28;20371;-41
2022/07/14 00:56:10;;;;;;;;;;;;;;;;;;5095723;28;19908;-41
2022/07/14 00:58:35;;;;;;;;;;;;;;;;;;5095761;28;19908;-41
2022/07/14 01:01:00;;;;;;;;;;;;;;;;;;5095906;28;19905;-41
2022/07/14 01:03:25;;;;;;;;;;;;;;;;;;5095026;28;20343;-41
2022/07/14 01:05:50;;;;;;;;;;;;;;;;;;5095374;28;19915;-42
2022/07/14 01:08:15;;;;;;;;;;;;;;;;;;5095788;28;19912;-41
2022/07/14 01:10:40;;;;;;;;;;;;;;;;;;5095644;28;19974;-42
2022/07/14 01:13:05;;;;;;;;;;;;;;;;;;5095741;28;19912;-41
2022/07/14 01:15:30;;;;;;;;;;;;;;;;;;5095348;28;19991;-41
2022/07/14 01:17:56;;;;;;;;;;;;;;;;;;5095735;28;19915;-41
2022/07/14 01:20:21;;;;;;;;;;;;;;;;;;5095644;28;19908;-41
2022/07/14 01:22:49;;;;;;;;;;;;;;;;;;5095627;28;19908;-41
2022/07/14 01:25:14;;;;;;;;;;;;;;;;;;5095188;28;19915;-41
2022/07/14 01:27:39;;;;;;;;;;;;;;;;;;5095433;28;19908;-41
2022/07/14 01:30:04;;;;;;;;;;;;;;;;;;5095396;28;19915;-41
2022/07/14 01:32:29;;;;;;;;;;;;;;;;;;5095448;28;19913;-41
2022/07/14 01:34:54;;;;;;;;;;;;;;;;;;5095108;28;19909;-41
2022/07/14 01:37:20;;;;;;;;;;;;;;;;;;5095065;28;20362;-42
2022/07/14 01:39:45;;;;;;;;;;;;;;;;;;5095203;28;19908;-41
2022/07/14 01:42:11;;;;;;;;;;;;;;;;;;5095367;28;19916;-42
2022/07/14 01:44:36;;;;;;;;;;;;;;;;;;5095081;28;19920;-41
2022/07/14 01:47:01;;;;;;;;;;;;;;;;;;5098383;28;20274;-41
2022/07/14 01:49:26;;;;;;;;;;;;;;;;;;5099405;28;20111;-41
2022/07/14 01:51:52;;;;;;;;;;;;;;;;;;5099386;28;19993;-41
2022/07/14 01:54:17;;;;;;;;;;;;;;;;;;5099338;28;19995;-41
2022/07/14 01:56:42;;;;;;;;;;;;;;;;;;5099390;28;19936;-41
2022/07/14 01:59:07;;;;;;;;;;;;;;;;;;5099020;28;20002;-42
2022/07/14 02:01:42;;;;;;;;;;;;;;;;;;5099680;28;20371;-40
2022/07/14 02:04:08;;;;;;;;;;;;;;;;;;5099263;28;19927;-41
2022/07/14 02:06:33;;;;;;;;;;;;;;;;;;5099512;28;19943;-41
2022/07/14 02:08:58;;;;;;;;;;;;;;;;;;5099686;28;19908;-40
2022/07/14 02:14:07;;;;;;;;;;;;;;;;;;5099790;28;19919;-41
2022/07/14 02:16:32;;;;;;;;;;;;;;;;;;5099481;28;19908;-41
2022/07/14 02:18:57;;;;;;;;;;;;;;;;;;5099512;28;20343;-41
2022/07/14 02:21:23;;;;;;;;;;;;;;;;;;5099612;28;19912;-40
2022/07/14 02:23:48;;;;;;;;;;;;;;;;;;5099315;28;20298;-40
2022/07/14 02:26:13;;;;;;;;;;;;;;;;;;5099159;28;19953;-43
2022/07/14 02:28:38;;;;;;;;;;;;;;;;;;5099224;28;19908;-41
2022/07/14 02:31:03;;;;;;;;;;;;;;;;;;5099180;28;19912;-40
2022/07/14 02:33:29;;;;;;;;;;;;;;;;;;5099086;28;19908;-40
2022/07/14 02:35:54;;;;;;;;;;;;;;;;;;5099118;28;19908;-40
2022/07/14 02:38:19;;;;;;;;;;;;;;;;;;5099455;28;19945;-40
2022/07/14 02:40:45;;;;;;;;;;;;;;;;;;5098683;28;19916;-40
2022/07/14 02:43:10;;;;;;;;;;;;;;;;;;5098479;28;19908;-40
2022/07/14 02:45:35;;;;;;;;;;;;;;;;;;5098517;28;20397;-40
2022/07/14 02:48:01;;;;;;;;;;;;;;;;;;5098432;28;20002;-40
2022/07/14 02:50:26;;;;;;;;;;;;;;;;;;5098291;28;19943;-40
2022/07/14 02:52:51;;;;;;;;;;;;;;;;;;5098487;28;19971;-40
2022/07/14 02:55:16;;;;;;;;;;;;;;;;;;5098330;28;19951;-41
2022/07/14 02:57:41;;;;;;;;;;;;;;;;;;5097538;28;19943;-40
2022/07/14 03:00:06;;;;;;;;;;;;;;;;;;5098195;28;19909;-40
2022/07/14 03:02:32;;;;;;;;;;;;;;;;;;5097909;28;19908;-40
2022/07/14 03:04:57;;;;;;;;;;;;;;;;;;5097832;28;19920;-41
2022/07/14 03:07:22;;;;;;;;;;;;;;;;;;5098281;28;20377;-40
2022/07/14 03:09:47;;;;;;;;;;;;;;;;;;5097886;28;20430;-40
2022/07/14 03:12:12;;;;;;;;;;;;;;;;;;5097791;28;19923;-40
2022/07/14 03:14:37;;;;;;;;;;;;;;;;;;5098038;28;19936;-40
2022/07/14 03:17:03;;;;;;;;;;;;;;;;;;5098184;28;19915;-41
2022/07/14 03:19:28;;;;;;;;;;;;;;;;;;5098198;28;19912;-39
2022/07/14 03:21:53;;;;;;;;;;;;;;;;;;5098144;28;19915;-40
2022/07/14 03:24:20;;;;;;;;;;;;;;;;;;5097620;28;19923;-40
2022/07/14 03:26:46;;;;;;;;;;;;;;;;;;5097830;28;20389;-40
2022/07/14 03:29:11;;;;;;;;;;;;;;;;;;5097620;28;19909;-40
2022/07/14 03:31:36;;;;;;;;;;;;;;;;;;5097880;28;19912;-40
2022/07/14 03:34:01;;;;;;;;;;;;;;;;;;5097634;28;19908;-40
2022/07/14 03:36:26;;;;;;;;;;;;;;;;;;5097504;28;20286;-40
2022/07/14 03:38:52;;;;;;;;;;;;;;;;;;5097560;28;19908;-40
2022/07/14 03:41:17;;;;;;;;;;;;;;;;;;5097708;28;19912;-41
2022/07/14 03:43:43;;;;;;;;;;;;;;;;;;5097510;28;19908;-39
2022/07/14 03:46:09;;;;;;;;;;;;;;;;;;5097336;28;19915;-42
2022/07/14 03:48:34;;;;;;;;;;;;;;;;;;5097019;28;19908;-42
2022/07/14 03:50:59;;;;;;;;;;;;;;;;;;5096923;28;20358;-41
2022/07/14 03:53:24;;;;;;;;;;;;;;;;;;5097133;28;19908;-41
2022/07/14 03:55:49;;;;;;;;;;;;;;;;;;5096839;28;19915;-41
2022/07/14 03:58:14;;;;;;;;;;;;;;;;;;5096987;28;19915;-42
2022/07/14 04:00:39;;;;;;;;;;;;;;;;;;5097367;28;20007;-41
2022/07/14 04:03:05;;;;;;;;;;;;;;;;;;5095707;28;19908;-41
2022/07/14 04:05:30;;;;;;;;;;;;;;;;;;5096868;28;20018;-41
2022/07/14 04:07:55;;;;;;;;;;;;;;;;;;5097125;28;19915;-41
2022/07/14 04:10:20;;;;;;;;;;;;;;;;;;5096800;28;19908;-41
2022/07/14 04:12:45;;;;;;;;;;;;;;;;;;5096657;28;19909;-41
2022/07/14 04:15:10;;;;;;;;;;;;;;;;;;5096586;28;19908;-41
2022/07/14 04:17:35;;;;;;;;;;;;;;;;;;5096472;28;19930;-41
2022/07/14 04:20:00;;;;;;;;;;;;;;;;;;5096699;28;19955;-42
2022/07/14 04:22:26;;;;;;;;;;;;;;;;;;5095173;28;19955;-41
2022/07/14 04:24:51;;;;;;;;;;;;;;;;;;5096412;28;20003;-42
2022/07/14 04:27:16;;;;;;;;;;;;;;;;;;5096243;28;19908;-41
2022/07/14 04:29:41;;;;;;;;;;;;;;;;;;5096211;28;19947;-41
2022/07/14 04:32:07;;;;;;;;;;;;;;;;;;5096635;28;19920;-42
2022/07/14 04:34:34;;;;;;;;;;;;;;;;;;5095981;28;19916;-41
2022/07/14 04:36:59;;;;;;;;;;;;;;;;;;5096180;28;19922;-43
2022/07/14 04:39:24;;;;;;;;;;;;;;;;;;5095974;28;20355;-41
2022/07/14 04:41:49;;;;;;;;;;;;;;;;;;5096218;28;19982;-41
2022/07/14 04:44:14;;;;;;;;;;;;;;;;;;5096100;28;19955;-41
2022/07/14 04:46:40;;;;;;;;;;;;;;;;;;5095787;28;19904;-41
2022/07/14 04:52:04;;;;;;;;;;;;;;;;;;5095991;28;19919;-41
2022/07/14 04:54:29;;;;;;;;;;;;;;;;;;5094550;28;20329;-41
2022/07/14 04:56:55;;;;;;;;;;;;;;;;;;5095736;28;19913;-41
2022/07/14 04:59:20;;;;;;;;;;;;;;;;;;5095627;28;19916;-41
2022/07/14 05:01:45;;;;;;;;;;;;;;;;;;5095844;28;19915;-41
2022/07/14 05:04:10;;;;;;;;;;;;;;;;;;5095516;28;19920;-41
2022/07/14 05:06:35;;;;;;;;;;;;;;;;;;5095854;28;19908;-42
2022/07/14 05:09:00;;;;;;;;;;;;;;;;;;5095954;28;20381;-42
2022/07/14 05:11:26;;;;;;;;;;;;;;;;;;5095730;28;19927;-41
2022/07/14 05:13:52;;;;;;;;;;;;;;;;;;5095690;28;20006;-41
2022/07/14 05:16:17;;;;;;;;;;;;;;;;;;5095628;28;19947;-41
2022/07/14 05:18:43;;;;;;;;;;;;;;;;;;5095639;28;19909;-42
2022/07/14 05:21:08;;;;;;;;;;;;;;;;;;5094752;28;19912;-41
2022/07/14 05:23:33;;;;;;;;;;;;;;;;;;5095558;28;19912;-41
2022/07/14 05:25:58;;;;;;;;;;;;;;;;;;5095247;28;19951;-41
2022/07/14 05:28:23;;;;;;;;;;;;;;;;;;5093773;28;20012;-41
2022/07/14 05:30:48;;;;;;;;;;;;;;;;;;5091885;28;20124;-41
2022/07/14 05:33:14;;;;;;;;;;;;;;;;;;5091295;28;19912;-41
2022/07/14 05:35:39;;;;;;;;;;;;;;;;;;5077262;28;19916;-41
2022/07/14 05:38:04;;;;;;;;;;;;;;;;;;5078746;28;20046;-41
2022/07/14 05:40:29;;;;;;;;;;;;;;;;;;5084410;28;19913;-40
2022/07/14 05:42:54;;;;;;;;;;;;;;;;;;5083447;28;19930;-42
2022/07/14 05:45:20;;;;;;;;;;;;;;;;;;5091107;28;19912;-41
2022/07/14 05:47:45;;;;;;;;;;;;;;;;;;5082935;28;19920;-41
2022/07/14 05:50:10;;;;;;;;;;;;;;;;;;5087542;28;19912;-41
2022/07/14 05:52:35;;;;;;;;;;;;;;;;;;5077236;28;19920;-41
2022/07/14 05:55:00;;;;;;;;;;;;;;;;;;5082768;28;19969;-41
2022/07/14 05:57:25;;;;;;;;;;;;;;;;;;5079179;28;19912;-41
2022/07/14 05:59:50;;;;;;;;;;;;;;;;;;5073378;28;19920;-42
2022/07/14 06:02:16;;;;;;;;;;;;;;;;;;5068900;28;19919;-41
2022/07/14 06:04:41;;;;;;;;;;;;;;;;;;5069335;28;20019;-41
2022/07/14 06:07:06;;;;;;;;;;;;;;;;;;5063125;28;19919;-41
2022/07/14 06:09:31;;;;;;;;;;;;;;;;;;5076322;28;19962;-41
2022/07/14 06:11:56;;;;;;;;;;;;;;;;;;5074452;28;20356;-41
2022/07/14 06:14:21;;;;;;;;;;;;;;;;;;5069629;28;20830;-41
2022/07/14 06:16:47;;;;;;;;;;;;;;;;;;5059907;28;19928;-42
2022/07/14 06:19:12;;;;;;;;;;;;;;;;;;5045581;28;20294;-42
2022/07/14 06:21:37;;;;;;;;;;;;;;;;;;5054824;28;19920;-41
2022/07/14 06:24:02;;;;;;;;;;;;;;;;;;5047887;28;20383;-41
2022/07/14 06:26:27;;;;;;;;;;;;;;;;;;5031657;28;19920;-41
2022/07/14 06:28:52;;;;;;;;;;;;;;;;;;5021062;28;19931;-42
2022/07/14 06:31:17;;;;;;;;;;;;;;;;;;5053517;28;20014;-41
2022/07/14 06:33:43;;;;;;;;;;;;;;;;;;5058204;28;20441;-41
2022/07/14 06:36:08;;;;;;;;;;;;;;;;;;5056812;28;19966;-41
2022/07/14 06:38:33;;;;;;;;;;;;;;;;;;5053801;28;19920;-41
2022/07/14 06:40:58;;;;;;;;;;;;;;;;;;5051767;28;19931;-42
2022/07/14 06:43:23;;;;;;;;;;;;;;;;;;5052861;28;19927;-41
2022/07/14 06:45:49;;;;;;;;;;;;;;;;;;5056406;28;19916;-41
2022/07/14 06:48:14;;;;;;;;;;;;;;;;;;5061140;28;20359;-41
2022/07/14 06:50:39;;;;;;;;;;;;;;;;;;5062616;28;20355;-41
2022/07/14 06:53:04;;;;;;;;;;;;;;;;;;5057961;28;20022;-42
2022/07/14 06:55:29;;;;;;;;;;;;;;;;;;5063294;28;19920;-42
2022/07/14 06:57:54;;;;;;;;;;;;;;;;;;5061329;28;20397;-41
2022/07/14 07:00:20;;;;;;;;;;;;;;;;;;5058775;28;20675;-40
2022/07/14 07:02:45;;;;;;;;;;;;;;;;;;5048999;28;19921;-41
2022/07/14 07:07:54;;;;;;;;;;;;;;;;;;5052355;28;19934;-41
2022/07/14 07:10:19;;;;;;;;;;;;;;;;;;5049972;28;19920;-41
2022/07/14 07:12:44;;;;;;;;;;;;;;;;;;5051159;28;19913;-41
2022/07/14 07:15:09;;;;;;;;;;;;;;;;;;5054055;28;20386;-41
2022/07/14 07:17:34;;;;;;;;;;;;;;;;;;5055291;28;21547;-42
2022/07/14 07:19:59;;;;;;;;;;;;;;;;;;5059999;28;19916;-41
2022/07/14 07:22:24;;;;;;;;;;;;;;;;;;5056762;28;20564;-42
2022/07/14 07:24:49;;;;;;;;;;;;;;;;;;5042047;28;19920;-42
2022/07/14 07:27:15;;;;;;;;;;;;;;;;;;5051872;28;20303;-42
2022/07/14 07:29:40;;;;;;;;;;;;;;;;;;5057800;28;19920;-42
2022/07/14 07:32:05;;;;;;;;;;;;;;;;;;5054544;28;19924;-42
2022/07/14 07:34:30;;;;;;;;;;;;;;;;;;5047800;28;19924;-41
2022/07/14 07:36:55;;;;;;;;;;;;;;;;;;5046189;28;19989;-41
2022/07/14 07:39:20;;;;;;;;;;;;;;;;;;5051612;28;19947;-41
2022/07/14 07:41:46;;;;;;;;;;;;;;;;;;5061758;28;20294;-42
2022/07/14 07:44:11;;;;;;;;;;;;;;;;;;5050876;28;20047;-43
2022/07/14 07:46:36;;;;;;;;;;;;;;;;;;5062039;28;19927;-42
2022/07/14 07:49:01;;;;;;;;;;;;;;;;;;5058684;28;19920;-42
2022/07/14 07:51:26;;;;;;;;;;;;;;;;;;5040681;28;19931;-42
2022/07/14 07:53:51;;;;;;;;;;;;;;;;;;5041520;28;19933;-42
2022/07/14 07:56:16;;;;;;;;;;;;;;;;;;5042446;28;20291;-40
2022/07/14 07:58:41;;;;;;;;;;;;;;;;;;5037630;28;19920;-41
2022/07/14 08:01:06;;;;;;;;;;;;;;;;;;5032114;28;19920;-41
2022/07/14 08:03:32;;;;;;;;;;;;;;;;;;5050262;22;20544;-41
2022/07/14 08:05:57;;;;;;;;;;;;;;;;;;5059024;27;19928;-42
2022/07/14 08:08:22;;;;;;;;;;;;;;;;;;5069798;28;19964;-42
2022/07/14 08:10:47;;;;;;;;;;;;;;;;;;5075057;28;19930;-41
2022/07/14 08:13:12;;;;;;;;;;;;;;;;;;5072054;28;19919;-42
2022/07/14 08:15:37;;;;;;;;;;;;;;;;;;5063033;27;19951;-42
2022/07/14 08:18:02;;;;;;;;;;;;;;;;;;5069757;27;19980;-42
2022/07/14 08:20:27;;;;;;;;;;;;;;;;;;5070043;27;20089;-42
2022/07/14 08:22:53;;;;;;;;;;;;;;;;;;5066877;28;19916;-41
2022/07/14 08:25:18;;;;;;;;;;;;;;;;;;5063268;28;20646;-41
2022/07/14 08:27:43;;;;;;;;;;;;;;;;;;5034232;27;20975;-41
2022/07/14 08:30:08;;;;;;;;;;;;;;;;;;5045357;27;19921;-42
2022/07/14 08:32:33;;;;;;;;;;;;;;;;;;5054860;28;20710;-41
2022/07/14 08:34:58;;;;;;;;;;;;;;;;;;5032975;27;19970;-42
2022/07/14 08:37:23;;;;;;;;;;;;;;;;;;5040013;28;19983;-42
2022/07/14 08:39:48;;;;;;;;;;;;;;;;;;5039271;27;19919;-41
2022/07/14 08:42:13;;;;;;;;;;;;;;;;;;5065276;27;19919;-41
2022/07/14 08:44:39;;;;;;;;;;;;;;;;;;5070267;28;19926;-41
2022/07/14 08:47:04;;;;;;;;;;;;;;;;;;5063867;28;19931;-42
2022/07/14 08:49:29;;;;;;;;;;;;;;;;;;5054347;28;19937;-42
2022/07/14 08:51:54;;;;;;;;;;;;;;;;;;5051028;28;20397;-42
2022/07/14 08:54:19;;;;;;;;;;;;;;;;;;5056628;28;20412;-41
2022/07/14 08:56:44;;;;;;;;;;;;;;;;;;5057097;28;19923;-42
2022/07/14 08:59:09;;;;;;;;;;;;;;;;;;5058579;28;19935;-42
2022/07/14 09:01:35;;;;;;;;;;;;;;;;;;5042175;28;20339;-42
2022/07/14 09:04:01;;;;;;;;;;;;;;;;;;5061168;28;19915;-42
2022/07/14 09:06:26;;;;;;;;;;;;;;;;;;5063839;28;19971;-42
2022/07/14 09:08:52;;;;;;;;;;;;;;;;;;5064933;28;19926;-42
2022/07/14 09:11:17;;;;;;;;;;;;;;;;;;5061975;28;19929;-42
2022/07/14 09:13:43;;;;;;;;;;;;;;;;;;5067131;28;20014;-42
2022/07/14 09:16:08;;;;;;;;;;;;;;;;;;5069012;27;20504;-42
2022/07/14 09:18:33;;;;;;;;;;;;;;;;;;5047817;28;19970;-43
2022/07/14 09:20:58;;;;;;;;;;;;;;;;;;5034149;28;19927;-43
2022/07/14 09:23:23;;;;;;;;;;;;;;;;;;5016754;28;20030;-42
2022/07/14 09:25:48;;;;;;;;;;;;;;;;;;5039452;28;19927;-42
2022/07/14 09:28:13;;;;;;;;;;;;;;;;;;5053948;28;19924;-42
2022/07/14 09:30:39;;;;;;;;;;;;;;;;;;5044304;28;20034;-42
2022/07/14 09:33:04;;;;;;;;;;;;;;;;;;5063837;28;20378;-42
2022/07/14 09:35:29;;;;;;;;;;;;;;;;;;5072152;28;19915;-42
2022/07/14 09:37:54;;;;;;;;;;;;;;;;;;5069151;28;19923;-42
2022/07/14 09:40:19;;;;;;;;;;;;;;;;;;5066848;28;20015;-42
2022/07/14 09:42:44;;;;;;;;;;;;;;;;;;5074794;28;20010;-42
2022/07/14 09:45:10;;;;;;;;;;;;;;;;;;5073788;28;20360;-42
2022/07/14 09:47:35;;;;;;;;;;;;;;;;;;5065221;28;19920;-42
2022/07/14 09:50:00;;;;;;;;;;;;;;;;;;5065192;28;20382;-42
2022/07/14 09:52:25;;;;;;;;;;;;;;;;;;5063441;28;20353;-42
2022/07/14 09:54:50;;;;;;;;;;;;;;;;;;5065163;28;19923;-43
2022/07/14 09:57:15;;;;;;;;;;;;;;;;;;5085662;28;20484;-43
2022/07/14 09:59:41;;;;;;;;;;;;;;;;;;5076253;28;19966;-43
2022/07/14 10:02:06;;;;;;;;;;;;;;;;;;5066524;28;19993;-42
2022/07/14 10:04:31;;;;;;;;;;;;;;;;;;5071029;28;21569;-42
2022/07/14 10:06:56;;;;;;;;;;;;;;;;;;5071530;28;19963;-42
2022/07/14 10:09:21;;;;;;;;;;;;;;;;;;5069519;28;21669;-43
2022/07/14 10:11:46;;;;;;;;;;;;;;;;;;5082206;28;19931;-42
2022/07/14 10:14:11;;;;;;;;;;;;;;;;;;5082511;28;19927;-43
2022/07/14 10:16:36;;;;;;;;;;;;;;;;;;5090256;28;19912;-42
2022/07/14 10:19:02;;;;;;;;;;;;;;;;;;5085049;28;19966;-43
2022/07/14 10:21:27;;;;;;;;;;;;;;;;;;5085393;28;20043;-43
2022/07/14 10:23:52;;;;;;;;;;;;;;;;;;5089610;28;19923;-44
2022/07/14 10:26:17;;;;;;;;;;;;;;;;;;5089574;28;19959;-42
2022/07/14 10:28:42;;;;;;;;;;;;;;;;;;5081828;28;19911;-42
2022/07/14 10:31:07;;;;;;;;;;;;;;;;;;5070532;28;19930;-42
2022/07/14 10:33:33;;;;;;;;;;;;;;;;;;5064790;28;19926;-44
2022/07/14 10:35:58;;;;;;;;;;;;;;;;;;5079177;28;21287;-43
2022/07/14 10:38:23;;;;;;;;;;;;;;;;;;5070429;28;19920;-44
2022/07/14 10:40:48;;;;;;;;;;;;;;;;;;5088514;28;19968;-43
2022/07/14 10:43:13;;;;;;;;;;;;;;;;;;5079221;28;19949;-43
2022/07/14 10:45:38;;;;;;;;;;;;;;;;;;5085096;28;19920;-42
2022/07/14 10:48:04;;;;;;;;;;;;;;;;;;5093068;28;19920;-43
2022/07/14 10:50:29;;;;;;;;;;;;;;;;;;5082535;28;20366;-43
2022/07/14 10:52:55;;;;;;;;;;;;;;;;;;5097340;28;19990;-44
2022/07/14 10:55:21;;;;;;;;;;;;;;;;;;5095553;28;19934;-43
2022/07/14 10:57:46;;;;;;;;;;;;;;;;;;5097767;28;19920;-43
2022/07/14 11:00:11;;;;;;;;;;;;;;;;;;5101578;28;19926;-44
2022/07/14 11:02:38;;;;;;;;;;;;;;;;;;5091947;28;19931;-43
2022/07/14 11:05:12;;;;;;;;;;;;;;;;;;5080502;28;20279;-43
2022/07/14 11:07:38;;;;;;;;;;;;;;;;;;5083989;28;19927;-43
2022/07/14 11:10:04;;;;;;;;;;;;;;;;;;5080184;28;19915;-42
2022/07/14 11:12:29;;;;;;;;;;;;;;;;;;5070356;28;20034;-42
2022/07/14 11:14:54;;;;;;;;;;;;;;;;;;5088311;28;20386;-42
2022/07/14 11:17:22;;;;;;;;;;;;;;;;;;5095373;28;20027;-43
2022/07/14 11:19:47;;;;;;;;;;;;;;;;;;5093895;28;20370;-42
2022/07/14 11:22:12;;;;;;;;;;;;;;;;;;5096283;28;19912;-43
2022/07/14 11:24:37;;;;;;;;;;;;;;;;;;5098657;27;19920;-42
2022/07/14 11:27:03;;;;;;;;;;;;;;;;;;5098327;28;20014;-43
2022/07/14 11:29:28;;;;;;;;;;;;;;;;;;5094055;28;19919;-43
2022/07/14 11:31:53;;;;;;;;;;;;;;;;;;5100604;28;19924;-44
2022/07/14 11:37:02;;;;;;;;;;;;;;;;;;5099914;28;19954;-42
2022/07/14 11:39:27;;;;;;;;;;;;;;;;;;5095147;28;19916;-42
2022/07/14 11:41:53;;;;;;;;;;;;;;;;;;5097471;28;19959;-43
2022/07/14 11:44:18;;;;;;;;;;;;;;;;;;5098192;28;20089;-42
2022/07/14 11:46:43;;;;;;;;;;;;;;;;;;5101592;28;19919;-42
2022/07/14 11:49:08;;;;;;;;;;;;;;;;;;5098171;28;19922;-43
2022/07/14 11:51:33;;;;;;;;;;;;;;;;;;5097905;28;19939;-42
2022/07/14 11:53:59;;;;;;;;;;;;;;;;;;5091762;28;20413;-43
2022/07/14 11:56:24;;;;;;;;;;;;;;;;;;5092855;28;19927;-42
2022/07/14 11:58:49;;;;;;;;;;;;;;;;;;5097619;28;19926;-43
2022/07/14 12:01:14;;;;;;;;;;;;;;;;;;5099755;28;19923;-43
2022/07/14 12:03:40;;;;;;;;;;;;;;;;;;5094645;27;19927;-43
2022/07/14 12:06:05;;;;;;;;;;;;;;;;;;5093372;28;19924;-43
2022/07/14 12:08:30;;;;;;;;;;;;;;;;;;5091478;28;19920;-43
2022/07/14 12:10:55;;;;;;;;;;;;;;;;;;5097613;28;19924;-42
2022/07/14 12:13:20;;;;;;;;;;;;;;;;;;5092481;27;19959;-43
2022/07/14 12:15:46;;;;;;;;;;;;;;;;;;5077459;28;19930;-44
2022/07/14 12:18:11;;;;;;;;;;;;;;;;;;5084498;28;19935;-42
2022/07/14 12:20:36;;;;;;;;;;;;;;;;;;5091796;28;19920;-44
2022/07/14 12:23:01;;;;;;;;;;;;;;;;;;5085975;28;19927;-43
2022/07/14 12:25:27;;;;;;;;;;;;;;;;;;5085253;28;19920;-43
2022/07/14 12:27:52;;;;;;;;;;;;;;;;;;5089538;28;19916;-42
2022/07/14 12:30:17;;;;;;;;;;;;;;;;;;5092542;28;19916;-42
2022/07/14 12:32:42;;;;;;;;;;;;;;;;;;5091170;27;19916;-44
2022/07/14 12:35:07;;;;;;;;;;;;;;;;;;5091745;27;19947;-43
2022/07/14 12:37:32;;;;;;;;;;;;;;;;;;5086761;28;20010;-43
2022/07/14 12:39:57;;;;;;;;;;;;;;;;;;5088146;28;22354;-43
2022/07/14 12:42:22;;;;;;;;;;;;;;;;;;5094027;27;20353;-42
2022/07/14 12:44:48;;;;;;;;;;;;;;;;;;5086188;28;20395;-42
2022/07/14 12:47:14;;;;;;;;;;;;;;;;;;5094401;28;19916;-42
2022/07/14 12:49:39;;;;;;;;;;;;;;;;;;5093722;28;19927;-42
2022/07/14 12:52:04;;;;;;;;;;;;;;;;;;5096447;28;19927;-42
2022/07/14 12:54:30;;;;;;;;;;;;;;;;;;5092603;28;19919;-43
2022/07/14 12:56:55;;;;;;;;;;;;;;;;;;5096887;28;20003;-42
2022/07/14 12:59:20;;;;;;;;;;;;;;;;;;5089781;28;19942;-42
2022/07/14 13:01:46;;;;;;;;;;;;;;;;;;5087405;28;20370;-42
2022/07/14 13:04:12;;;;;;;;;;;;;;;;;;5086551;28;19960;-43
2022/07/14 13:06:37;;;;;;;;;;;;;;;;;;5086331;28;20762;-42
2022/07/14 13:09:02;;;;;;;;;;;;;;;;;;5081365;28;19926;-43
2022/07/14 13:11:28;;;;;;;;;;;;;;;;;;5092789;28;20447;-42
2022/07/14 13:13:53;;;;;;;;;;;;;;;;;;5084097;28;19927;-42
2022/07/14 13:16:18;;;;;;;;;;;;;;;;;;5091511;28;19920;-43
2022/07/14 13:18:44;;;;;;;;;;;;;;;;;;5086372;28;19923;-42
2022/07/14 13:21:09;;;;;;;;;;;;;;;;;;5079122;28;19923;-43
2022/07/14 13:23:34;;;;;;;;;;;;;;;;;;5087195;28;20370;-43
2022/07/14 13:25:59;;;;;;;;;;;;;;;;;;5095861;28;19943;-43
2022/07/14 13:28:24;;;;;;;;;;;;;;;;;;5087526;28;19920;-43
2022/07/14 13:30:50;;;;;;;;;;;;;;;;;;5083111;28;20694;-43
2022/07/14 13:33:15;;;;;;;;;;;;;;;;;;5076124;28;19920;-43
2022/07/14 13:35:40;;;;;;;;;;;;;;;;;;5085373;28;19933;-43
2022/07/14 13:38:05;;;;;;;;;;;;;;;;;;5091590;28;19923;-43
2022/07/14 13:40:31;;;;;;;;;;;;;;;;;;5092275;28;19919;-43
2022/07/14 13:42:57;;;;;;;;;;;;;;;;;;5087543;28;20350;-43
2022/07/14 13:45:22;;;;;;;;;;;;;;;;;;5087673;28;19942;-42
2022/07/14 13:47:47;;;;;;;;;;;;;;;;;;5097486;28;19959;-43
2022/07/14 13:52:56;;;;;;;;;;;;;;;;;;5091790;28;20294;-42
2022/07/14 13:55:21;;;;;;;;;;;;;;;;;;5090905;28;19916;-43
2022/07/14 13:57:46;;;;;;;;;;;;;;;;;;5100249;28;19961;-42
2022/07/14 14:00:11;;;;;;;;;;;;;;;;;;5098517;28;19964;-42
2022/07/14 14:05:22;;;;;;;;;;;;;;;;;;5077064;28;19920;-43
2022/07/14 14:07:47;;;;;;;;;;;;;;;;;;5088390;28;19912;-42
2022/07/14 14:10:12;;;;;;;;;;;;;;;;;;5091216;28;19916;-42
2022/07/14 14:12:37;;;;;;;;;;;;;;;;;;5096302;28;20355;-42
2022/07/14 14:15:02;;;;;;;;;;;;;;;;;;5098611;28;19920;-42
2022/07/14 14:17:27;;;;;;;;;;;;;;;;;;5101069;28;19981;-43
2022/07/14 14:19:52;;;;;;;;;;;;;;;;;;5097951;28;19969;-43
2022/07/14 14:22:20;;;;;;;;;;;;;;;;;;5094256;28;20015;-43
2022/07/14 14:24:45;;;;;;;;;;;;;;;;;;5107715;28;19934;-42
2022/07/14 14:27:10;;;;;;;;;;;;;;;;;;5104412;28;19920;-43
2022/07/14 14:29:36;;;;;;;;;;;;;;;;;;5100175;28;19981;-42
2022/07/14 14:32:01;;;;;;;;;;;;;;;;;;5099516;28;19919;-43
2022/07/14 14:34:28;;;;;;;;;;;;;;;;;;5109986;28;19973;-42
2022/07/14 14:36:53;;;;;;;;;;;;;;;;;;5104372;28;20326;-44
2022/07/14 14:39:18;;;;;;;;;;;;;;;;;;5106286;28;20001;-43
2022/07/14 14:41:43;;;;;;;;;;;;;;;;;;5110827;28;19911;-42
2022/07/14 14:44:08;;;;;;;;;;;;;;;;;;5105638;28;19916;-43
2022/07/14 14:46:33;;;;;;;;;;;;;;;;;;5104743;28;19911;-43
2022/07/14 14:48:58;;;;;;;;;;;;;;;;;;5106940;28;19916;-43
2022/07/14 14:51:23;;;;;;;;;;;;;;;;;;5102682;28;19924;-43
2022/07/14 14:53:48;;;;;;;;;;;;;;;;;;5102578;28;19916;-43
2022/07/14 14:56:14;;;;;;;;;;;;;;;;;;5111480;28;20010;-42
2022/07/14 14:58:39;;;;;;;;;;;;;;;;;;5111699;28;20031;-42
2022/07/14 15:01:04;;;;;;;;;;;;;;;;;;5112349;28;19949;-42
2022/07/14 15:03:29;;;;;;;;;;;;;;;;;;5108219;28;20500;-43
2022/07/14 15:05:54;;;;;;;;;;;;;;;;;;5112390;28;19920;-42
2022/07/14 15:08:22;;;;;;;;;;;;;;;;;;5105949;28;19912;-43
2022/07/14 15:10:47;;;;;;;;;;;;;;;;;;5116634;28;19912;-44
2022/07/14 15:13:12;;;;;;;;;;;;;;;;;;5112426;28;19918;-43
2022/07/14 15:15:37;;;;;;;;;;;;;;;;;;5106955;28;19926;-43
2022/07/14 15:18:02;;;;;;;;;;;;;;;;;;5115306;28;20010;-43
2022/07/14 15:20:27;;;;;;;;;;;;;;;;;;5111237;28;19927;-42
2022/07/14 15:22:53;;;;;;;;;;;;;;;;;;5112324;28;19912;-43
2022/07/14 15:25:19;;;;;;;;;;;;;;;;;;5111741;28;20322;-44
2022/07/14 15:27:44;;;;;;;;;;;;;;;;;;5116024;28;19915;-46
2022/07/14 15:30:09;;;;;;;;;;;;;;;;;;5117834;28;20047;-42
2022/07/14 15:32:34;;;;;;;;;;;;;;;;;;5117267;28;19916;-42
2022/07/14 15:34:59;;;;;;;;;;;;;;;;;;5117230;28;19912;-42
2022/07/14 15:37:25;;;;;;;;;;;;;;;;;;5118124;28;19915;-43
2022/07/14 15:42:34;;;;;;;;;;;;;;;;;;5116134;28;19965;-42
2022/07/14 15:45:00;;;;;;;;;;;;;;;;;;5115702;28;19916;-42
2022/07/14 15:47:25;;;;;;;;;;;;;;;;;;5115832;28;19912;-43
2022/07/14 15:49:50;;;;;;;;;;;;;;;;;;5116362;28;20354;-44
2022/07/14 15:52:15;;;;;;;;;;;;;;;;;;5112463;28;19916;-42
2022/07/14 15:54:40;;;;;;;;;;;;;;;;;;5113329;28;20325;-43
2022/07/14 15:57:05;;;;;;;;;;;;;;;;;;5114923;28;19916;-43
2022/07/14 15:59:31;;;;;;;;;;;;;;;;;;5113430;28;19958;-43
2022/07/14 16:01:56;;;;;;;;;;;;;;;;;;5117189;28;19958;-44
2022/07/14 16:04:21;;;;;;;;;;;;;;;;;;5115837;28;19927;-42
2022/07/14 16:06:47;;;;;;;;;;;;;;;;;;5115510;28;19948;-42
2022/07/14 16:09:12;;;;;;;;;;;;;;;;;;5117324;28;19908;-43
2022/07/14 16:11:37;;;;;;;;;;;;;;;;;;5116906;28;19912;-43
2022/07/14 16:14:03;;;;;;;;;;;;;;;;;;5117110;28;19961;-42
2022/07/14 16:16:28;;;;;;;;;;;;;;;;;;5116993;28;19912;-43
2022/07/14 16:18:53;;;;;;;;;;;;;;;;;;5115918;28;19903;-43
2022/07/14 16:21:18;;;;;;;;;;;;;;;;;;5116938;28;19908;-42
2022/07/14 16:23:45;;;;;;;;;;;;;;;;;;5116466;28;20427;-42
2022/07/14 16:26:12;;;;;;;;;;;;;;;;;;5115879;28;19943;-42
2022/07/14 16:28:37;;;;;;;;;;;;;;;;;;5116962;28;19946;-43
2022/07/14 16:31:03;;;;;;;;;;;;;;;;;;5117167;28;19963;-43
2022/07/14 16:33:28;;;;;;;;;;;;;;;;;;5117479;28;19954;-43
2022/07/14 16:35:53;;;;;;;;;;;;;;;;;;5117139;28;19939;-43
2022/07/14 16:38:18;;;;;;;;;;;;;;;;;;5116790;28;20358;-42
2022/07/14 16:40:43;;;;;;;;;;;;;;;;;;5116900;28;19943;-43
2022/07/14 16:43:08;;;;;;;;;;;;;;;;;;5116939;28;19908;-42
2022/07/14 16:45:33;;;;;;;;;;;;;;;;;;5116816;28;19956;-43
2022/07/14 16:47:58;;;;;;;;;;;;;;;;;;5116599;28;19908;-42
2022/07/14 16:50:24;;;;;;;;;;;;;;;;;;5117187;28;19908;-42